Time;durP1;ratioP1;P1;durP2;ratioP2;P2;SDS_P1;SDS_P2;PMS_P1;PMS_P2;Temp;Humidity;BMP_temperature;BMP_pressure;BME280_temperature;BME280_humidity;BME280_pressure;Samples;Min_cycle;Max_cycle;Signal;HPM_P1;HPM_P2
2022/07/04 06:19:25;;;;;;;;;2.50;2.50;;;;;19.14;51.96;102034.75;2949006;22;46339;31
2022/07/04 06:20:35;;;;;;;;;3.00;3.00;;;;;19.14;51.71;102024.09;2391130;28;46748;-79
2022/07/04 06:21:46;;;;;;;;;2.00;2.00;;;;;19.14;51.66;102016.94;2394446;28;45204;-79
2022/07/04 06:22:56;;;;;;;;;4.00;2.00;;;;;19.18;52.13;102028.34;2392965;28;45493;-79
2022/07/04 06:24:06;;;;;;;;;2.75;2.75;;;;;19.21;52.06;102026.38;2390456;28;46556;-79
2022/07/04 06:25:19;;;;;;;;;4.00;3.00;;;;;19.26;51.97;102025.31;2390739;28;46298;-79
2022/07/04 06:26:30;;;;;;;;;3.00;2.25;;;;;19.29;51.74;102028.69;2392810;28;45302;-79
2022/07/04 06:27:41;;;;;;;;;3.00;2.75;;;;;19.33;51.76;102024.91;2388739;28;45233;-79
2022/07/04 06:28:52;;;;;;;;;4.50;3.50;;;;;19.38;51.83;102031.84;2391537;28;45578;-79
2022/07/04 06:30:03;;;;;;;;;3.00;3.00;;;;;19.42;51.53;102033.41;2392571;28;46390;-80
2022/07/04 06:31:14;;;;;;;;;2.00;2.00;;;;;19.47;51.30;102031.38;2398099;28;45487;-80
2022/07/04 06:32:24;;;;;;;;;2.25;2.00;;;;;19.48;50.85;102021.56;2393809;28;46341;-79
2022/07/04 06:35:44;;;;;;;;;2.00;2.00;;;;;19.53;51.77;102025.72;2390766;28;45387;-79
2022/07/04 06:36:34;;;;;;;;;1.00;1.00;;;;;19.62;51.61;102024.41;2390061;28;44889;-80
2022/07/04 06:37:44;;;;;;;;;4.00;2.00;;;;;19.68;51.51;102028.53;2390911;28;45430;-79
2022/07/04 06:38:55;;;;;;;;;2.50;2.50;;;;;19.72;50.83;102034.59;2392894;28;44749;-79
2022/07/04 06:40:07;;;;;;;;;2.00;2.00;;;;;19.75;51.32;102034.44;2391660;28;46420;-79
2022/07/04 06:41:17;;;;;;;;;3.50;3.00;;;;;19.77;51.04;102028.09;2391030;28;44840;-79
2022/07/04 06:42:28;;;;;;;;;5.00;3.00;;;;;19.81;50.94;102034.09;2392650;28;45233;-80
2022/07/04 06:43:39;;;;;;;;;4.00;3.00;;;;;19.85;51.30;102045.50;2402831;28;44703;-80
2022/07/04 06:44:49;;;;;;;;;4.50;3.00;;;;;19.87;50.66;102035.59;2396498;28;46502;-79
2022/07/04 06:45:59;;;;;;;;;2.75;2.75;;;;;19.89;50.69;102039.03;2389770;28;45130;-80
2022/07/04 06:47:10;;;;;;;;;4.50;3.00;;;;;19.90;50.56;102038.13;2387487;28;45430;-80
2022/07/04 06:48:21;;;;;;;;;3.00;2.00;;;;;19.92;50.42;102027.34;2390396;28;45527;-80
2022/07/04 06:49:31;;;;;;;;;3.00;3.00;;;;;19.97;50.67;102027.97;2389369;28;46377;-80
2022/07/04 06:50:41;;;;;;;;;3.00;3.00;;;;;19.98;50.16;102029.69;2391209;28;45450;-80
2022/07/04 06:51:51;;;;;;;;;4.00;2.00;;;;;20.00;50.23;102031.31;2390611;28;46199;-80
2022/07/04 06:53:03;;;;;;;;;5.00;2.25;;;;;20.04;50.57;102033.84;2390909;28;45549;-80
2022/07/04 06:54:14;;;;;;;;;1.00;1.00;;;;;20.06;50.59;102026.63;2390629;28;46153;-80
2022/07/04 06:55:24;;;;;;;;;2.00;2.00;;;;;20.10;50.69;102033.53;2390128;28;44852;-80
2022/07/04 06:56:34;;;;;;;;;2.00;2.00;;;;;20.14;50.49;102040.44;2388970;28;45696;-80
2022/07/04 06:57:45;;;;;;;;;2.00;2.00;;;;;20.17;50.63;102037.63;2389199;28;45516;-80
2022/07/04 06:58:55;;;;;;;;;2.00;2.00;;;;;20.21;50.13;102040.97;2390044;28;45416;-80
2022/07/04 07:00:07;;;;;;;;;2.00;2.00;;;;;20.27;50.84;102045.13;2392257;28;45703;-80
2022/07/04 07:01:18;;;;;;;;;3.50;2.00;;;;;20.29;50.63;102043.25;2393096;28;46465;-80
2022/07/04 07:02:28;;;;;;;;;2.75;2.00;;;;;20.33;49.95;102042.13;2389065;28;45671;-80
2022/07/04 07:03:39;;;;;;;;;2.00;2.00;;;;;20.35;50.13;102045.56;2390201;28;45557;-80
2022/07/04 07:04:49;;;;;;;;;3.75;2.00;;;;;20.37;49.65;102048.16;2386438;28;45527;-80
2022/07/04 07:06:01;;;;;;;;;2.50;2.50;;;;;20.39;49.80;102044.47;2389396;28;46266;-80
2022/07/04 07:07:12;;;;;;;;;3.75;2.50;;;;;20.41;49.80;102037.25;2389965;28;45520;-80
2022/07/04 07:08:22;;;;;;;;;2.50;2.50;;;;;20.44;49.65;102046.91;2388715;28;45509;-79
2022/07/04 07:09:33;;;;;;;;;4.00;2.00;;;;;20.43;48.73;102048.69;2388654;28;44869;-80
2022/07/04 07:10:43;;;;;;;;;1.00;1.00;;;;;20.40;49.02;102048.84;2392465;28;45448;-80
2022/07/04 07:11:53;;;;;;;;;3.00;2.00;;;;;20.36;48.94;102055.31;2387853;28;45541;-79
2022/07/04 07:13:04;;;;;;;;;5.00;3.00;;;;;20.33;49.29;102051.00;2387460;28;46074;-79
2022/07/04 07:14:14;;;;;;;;;3.00;3.00;;;;;20.32;48.90;102051.09;2388805;28;45502;-80
2022/07/04 07:15:24;;;;;;;;;4.00;3.00;;;;;20.28;48.92;102055.72;2391618;28;47984;-80
2022/07/04 07:16:35;;;;;;;;;2.00;1.00;;;;;20.26;48.63;102048.75;2393764;28;45347;-80
2022/07/04 07:17:45;;;;;;;;;2.00;2.00;;;;;20.25;49.75;102055.88;2393081;28;45434;-80
2022/07/04 07:18:56;;;;;;;;;4.00;2.25;;;;;20.26;48.62;102054.06;2392490;28;45474;-79
2022/07/04 07:20:07;;;;;;;;;1.50;1.50;;;;;20.23;48.58;102055.97;2392013;28;45411;-79
2022/07/04 07:21:18;;;;;;;;;3.00;3.00;;;;;20.22;48.53;102056.06;2389522;28;45478;-79
2022/07/04 07:22:28;;;;;;;;;2.75;1.75;;;;;20.22;49.37;102048.91;2390361;28;45336;-79
2022/07/04 07:23:40;;;;;;;;;2.00;1.50;;;;;20.27;49.14;102051.34;2392241;28;45680;-79
2022/07/04 07:24:50;;;;;;;;;2.75;2.00;;;;;20.30;49.39;102056.50;2392986;28;45507;-80
2022/07/04 07:26:01;;;;;;;;;3.50;2.00;;;;;20.36;49.49;102052.66;2389173;28;45343;-79
2022/07/04 07:27:11;;;;;;;;;4.00;2.50;;;;;20.40;49.18;102050.66;2392225;28;46283;-79
2022/07/04 07:28:21;;;;;;;;;2.00;2.00;;;;;20.45;49.04;102048.59;2392034;28;45526;-79
2022/07/04 07:29:32;;;;;;;;;2.00;2.00;;;;;20.51;48.96;102061.63;2391613;28;45418;-79
2022/07/04 07:30:42;;;;;;;;;3.50;3.25;;;;;20.52;48.41;102055.31;2392317;28;44825;-79
2022/07/04 07:31:53;;;;;;;;;4.00;2.00;;;;;20.51;48.59;102058.09;2389377;28;46348;-79
2022/07/04 07:33:03;;;;;;;;;2.25;2.25;;;;;20.51;49.08;102052.75;2391626;28;45845;-80
2022/07/04 07:34:14;;;;;;;;;5.25;3.75;;;;;20.50;48.63;102057.22;2389244;28;46436;-79
2022/07/04 07:35:24;;;;;;;;;2.00;2.00;;;;;20.50;48.49;102051.00;2393590;28;45410;-79
2022/07/04 07:36:34;;;;;;;;;1.25;1.25;;;;;20.52;48.88;102051.81;2391952;28;46314;-80
2022/07/04 07:37:45;;;;;;;;;3.00;3.00;;;;;20.53;49.37;102046.38;2390332;28;44841;-79
2022/07/04 07:38:55;;;;;;;;;2.00;2.00;;;;;20.56;48.88;102045.34;2391299;28;46570;-79
2022/07/04 07:40:07;;;;;;;;;0.00;0.00;;;;;20.60;48.68;102048.69;2393715;28;45523;-79
2022/07/04 07:41:17;;;;;;;;;3.00;3.00;;;;;20.62;48.12;102041.50;2386944;28;46774;-79
2022/07/04 07:42:28;;;;;;;;;7.75;2.75;;;;;20.63;48.70;102041.41;2391979;28;45382;-80
2022/07/04 07:43:39;;;;;;;;;2.25;2.25;;;;;20.65;48.71;102039.50;2393186;28;45394;-79
2022/07/04 07:44:50;;;;;;;;;2.00;2.00;;;;;20.67;48.80;102042.94;2391932;28;44654;-80
2022/07/04 07:46:00;;;;;;;;;2.25;2.25;;;;;20.69;48.22;102038.38;2389264;28;46515;-80
2022/07/04 07:47:10;;;;;;;;;3.00;1.75;;;;;20.74;48.15;102045.28;2393049;28;45413;-80
2022/07/04 07:48:21;;;;;;;;;3.50;2.25;;;;;20.74;47.80;102037.28;2393908;28;45315;-80
2022/07/04 07:49:31;;;;;;;;;2.00;2.00;;;;;20.75;48.37;102038.97;2392225;28;44766;-79
2022/07/04 07:50:42;;;;;;;;;4.00;2.00;;;;;20.77;48.28;102035.28;2392708;28;46376;-79
2022/07/04 07:51:52;;;;;;;;;2.50;2.50;;;;;20.81;48.13;102038.66;2392997;28;45377;-79
2022/07/04 07:53:02;;;;;;;;;3.00;2.00;;;;;20.84;48.22;102033.13;2392313;28;45449;-79
2022/07/04 07:54:13;;;;;;;;;2.00;2.00;;;;;20.88;48.27;102029.34;2391947;28;45977;-79
2022/07/04 07:55:23;;;;;;;;;6.00;2.50;;;;;20.92;47.97;102033.56;2390359;28;46307;-79
2022/07/04 07:56:34;;;;;;;;;1.50;1.50;;;;;20.96;47.31;102038.72;2394262;28;45359;-79
2022/07/04 07:57:44;;;;;;;;;4.00;1.50;;;;;20.98;47.75;102035.03;2393875;28;46187;-79
2022/07/04 07:58:55;;;;;;;;;2.00;2.00;;;;;21.00;47.40;102032.25;2393287;28;44701;-79
2022/07/04 08:00:06;;;;;;;;;3.00;2.00;;;;;21.02;47.85;102028.56;2395608;28;45560;-79
2022/07/04 08:01:16;;;;;;;;;4.75;3.50;;;;;21.05;47.50;102030.22;2389151;28;45500;-79
2022/07/04 08:05:26;;;;;;;;;3.25;2.00;;;;;21.11;46.95;102027.16;2392599;28;47521;-79
2022/07/04 08:06:36;;;;;;;;;1.50;1.50;;;;;21.10;46.96;102033.50;2392465;28;45359;-79
2022/07/04 08:07:47;;;;;;;;;2.50;2.50;;;;;21.09;46.80;102031.75;2393353;28;46272;-79
2022/07/04 08:08:58;;;;;;;;;2.50;2.50;;;;;21.11;47.38;102027.16;2392459;28;45355;-80
2022/07/04 08:10:09;;;;;;;;;4.75;2.00;;;;;21.10;47.23;102030.81;2390902;28;46291;-80
2022/07/04 08:11:19;;;;;;;;;3.75;2.75;;;;;21.11;46.62;102029.84;2391654;28;45618;-80
2022/07/04 08:12:30;;;;;;;;;2.00;2.00;;;;;21.09;46.57;102021.06;2389935;28;45630;-79
2022/07/04 08:13:40;;;;;;;;;3.25;3.00;;;;;21.09;46.74;102021.06;2396846;28;45283;-80
2022/07/04 08:14:51;;;;;;;;;3.50;3.50;;;;;21.09;46.53;102026.41;2389655;28;45398;-80
2022/07/04 08:16:01;;;;;;;;;2.00;2.00;;;;;21.09;46.20;102025.53;2390747;28;45533;-80
2022/07/04 08:17:12;;;;;;;;;2.00;2.00;;;;;21.09;46.68;102026.41;2389568;28;45503;-81
2022/07/04 08:18:23;;;;;;;;;3.25;2.25;;;;;21.10;46.83;102020.13;2388684;28;44753;-80
2022/07/04 08:19:33;;;;;;;;;2.25;2.25;;;;;21.12;46.91;102026.22;2388837;28;45560;-81
2022/07/04 08:20:44;;;;;;;;;3.00;2.00;;;;;21.14;46.61;102020.78;2389198;28;46049;-80
2022/07/04 08:21:54;;;;;;;;;2.00;2.00;;;;;21.13;46.47;102021.75;2389494;28;45528;-80
2022/07/04 08:23:04;;;;;;;;;3.00;3.00;;;;;21.11;45.22;102023.66;2388832;28;47106;-80
2022/07/04 08:24:15;;;;;;;;;2.25;2.25;;;;;21.09;45.45;102025.53;2388722;28;45748;-80
2022/07/04 08:25:25;;;;;;;;;2.00;2.00;;;;;21.07;45.77;102022.97;2388390;28;45566;-80
2022/07/04 08:26:36;;;;;;;;;1.00;0.00;;;;;21.06;45.83;102018.59;2397177;28;46158;-80
2022/07/04 08:27:46;;;;;;;;;0.50;0.50;;;;;21.05;45.64;102016.84;2396725;28;45534;-80
2022/07/04 08:28:57;;;;;;;;;1.00;1.00;;;;;21.05;45.73;102013.31;2388886;28;45329;-80
2022/07/04 08:30:08;;;;;;;;;1.75;1.75;;;;;21.07;46.29;102014.94;2393708;28;45213;-80
2022/07/04 08:31:19;;;;;;;;;2.25;2.00;;;;;21.09;45.81;102015.72;2388751;28;46150;-79
2022/07/04 08:32:29;;;;;;;;;3.00;2.00;;;;;21.12;45.72;102020.03;2391653;28;45334;-79
2022/07/04 08:33:39;;;;;;;;;2.00;2.00;;;;;21.15;45.88;102019.84;2393655;28;45316;-79
2022/07/04 08:34:50;;;;;;;;;2.00;2.00;;;;;21.18;46.07;102013.47;2392211;28;45715;-80
2022/07/04 08:36:00;;;;;;;;;1.00;1.00;;;;;21.20;45.16;102016.91;2391501;28;45387;-79
2022/07/04 08:37:10;;;;;;;;;2.00;2.00;;;;;21.21;44.88;102011.47;2392963;28;45256;-80
2022/07/04 08:38:21;;;;;;;;;2.00;2.00;;;;;21.23;44.66;102011.38;2393152;28;45250;-78
2022/07/04 08:39:31;;;;;;;;;2.00;2.00;;;;;21.22;45.00;102006.97;2392949;28;44686;-79
2022/07/04 08:40:42;;;;;;;;;6.50;2.25;;;;;21.21;45.12;102014.13;2390008;28;46014;-80
2022/07/04 08:41:58;;;;;;;;;3.00;3.00;;;;;21.18;44.38;102009.00;2393158;28;45163;-79
2022/07/04 08:43:14;;;;;;;;;2.75;2.00;;;;;21.16;44.60;102008.22;2393445;28;46615;-79
2022/07/04 08:44:27;;;;;;;;;4.75;2.50;;;;;21.16;44.43;101999.34;2392340;28;45470;-81
2022/07/04 08:45:37;;;;;;;;;1.50;1.00;;;;;21.15;44.79;102003.81;2390310;28;45328;-80
2022/07/04 08:46:52;;;;;;;;;2.00;2.00;;;;;21.16;44.70;102000.19;2387941;28;46857;-82
2022/07/04 08:48:08;;;;;;;;;1.50;1.50;;;;;21.17;44.96;101999.22;2393488;28;46344;-81
2022/07/04 08:49:26;;;;;;;;;3.25;1.00;;;;;21.22;45.04;101996.28;2393114;28;45229;-81
2022/07/04 08:50:39;;;;;;;;;2.00;2.00;;;;;21.27;45.16;101998.69;2390326;28;46781;-81
2022/07/04 08:51:57;;;;;;;;;2.00;2.00;;;;;21.29;43.91;101999.44;2391227;28;45213;-80
2022/07/04 08:53:12;;;;;;;;;1.25;1.25;;;;;21.30;44.04;101999.38;2391187;28;45407;-80
2022/07/04 08:58:56;;;;;;;;;1.00;1.00;;;;;21.29;43.91;101988.75;2390312;28;45653;-81
2022/07/04 09:00:07;;;;;;;;;3.00;3.00;;;;;21.31;43.70;101994.91;2391762;28;44679;-81
2022/07/04 09:01:19;;;;;;;;;3.25;2.25;;;;;21.31;43.82;101993.06;2388814;28;45582;-81
2022/07/04 09:02:30;;;;;;;;;3.00;3.00;;;;;21.34;43.35;101997.38;2391763;28;45374;-81
2022/07/04 09:03:45;;;;;;;;;1.50;1.00;;;;;21.36;43.59;101992.78;2386386;28;45560;-81
2022/07/04 09:04:55;;;;;;;;;1.00;1.00;;;;;21.36;43.81;101995.47;2389631;28;44980;-81
2022/07/04 09:06:06;;;;;;;;;2.50;2.50;;;;;21.38;43.06;101993.59;2389588;28;46358;-81
2022/07/04 09:07:17;;;;;;;;;2.00;2.00;;;;;21.39;43.33;101994.41;2390468;28;45540;-81
2022/07/04 09:08:28;;;;;;;;;2.75;2.25;;;;;21.39;43.55;101989.94;2392024;28;45415;-81
2022/07/04 09:09:40;;;;;;;;;1.75;1.75;;;;;21.41;43.78;101990.69;2391809;28;45428;-81
2022/07/04 09:10:51;;;;;;;;;2.25;2.25;;;;;21.44;43.72;101984.31;2391832;28;46721;-80
2022/07/04 09:12:02;;;;;;;;;1.75;1.25;;;;;21.47;43.46;101981.47;2389333;28;45462;-80
2022/07/04 09:13:23;;;;;;;;;2.00;2.00;;;;;21.52;44.00;101981.19;2392913;28;46622;-81
2022/07/04 09:14:33;;;;;;;;;3.00;2.00;;;;;21.55;44.25;101989.91;2392730;28;45371;-80
2022/07/04 09:15:48;;;;;;;;;3.50;2.00;;;;;21.59;43.57;101980.72;2391755;28;45407;-81
2022/07/04 09:16:59;;;;;;;;;2.25;2.25;;;;;21.63;43.11;101988.56;2387971;28;45419;-81
2022/07/04 09:18:21;;;;;;;;;2.00;2.00;;;;;21.63;43.10;101988.56;2389526;28;46262;-81
2022/07/04 09:19:32;;;;;;;;;2.75;2.75;;;;;21.64;43.46;101982.25;2391876;28;45237;-81
2022/07/04 09:20:43;;;;;;;;;2.25;1.00;;;;;21.65;43.88;101987.53;2392669;28;46121;-81
2022/07/04 09:21:53;;;;;;;;;2.50;2.50;;;;;21.67;42.74;101982.94;2391991;28;45375;-81
2022/07/04 09:23:20;;;;;;;;;2.75;2.00;;;;;21.67;42.51;101982.06;2392847;28;46514;-81
2022/07/04 09:24:51;;;;;;;;;2.00;2.00;;;;;21.67;43.16;101979.41;2389286;28;45343;-81
2022/07/04 09:26:09;;;;;;;;;1.50;1.00;;;;;21.71;43.41;101986.28;2390948;28;45509;-81
2022/07/04 09:27:47;;;;;;;;;2.00;2.00;;;;;21.74;43.02;101977.19;2392551;28;45471;-81
2022/07/04 09:28:58;;;;;;;;;2.00;2.00;;;;;21.72;43.28;101979.97;2384730;28;45323;-80
2022/07/04 09:30:08;;;;;;;;;3.00;2.00;;;;;21.72;42.82;101977.31;2392908;28;45383;-80
2022/07/04 09:31:21;;;;;;;;;1.00;0.00;;;;;21.71;43.07;101980.91;2388651;28;45522;-81
2022/07/04 09:32:38;;;;;;;;;2.25;2.25;;;;;21.73;42.99;101981.69;2390198;28;46879;-81
2022/07/04 09:33:52;;;;;;;;;2.00;2.00;;;;;21.72;42.64;101976.44;2390699;28;45546;-81
2022/07/04 09:35:05;;;;;;;;;4.00;2.50;;;;;21.74;42.43;101977.19;2390071;28;45304;-81
2022/07/04 09:36:17;;;;;;;;;2.00;2.00;;;;;21.75;42.76;101978.94;2388356;28;47261;-81
2022/07/04 09:37:45;;;;;;;;;2.00;2.00;;;;;21.78;42.96;101979.59;2391357;28;45508;-81
2022/07/04 09:39:15;;;;;;;;;2.50;2.25;;;;;21.81;42.45;101976.72;2389652;28;45899;-81
2022/07/04 09:41:24;;;;;;;;;2.00;2.00;;;;;21.85;42.54;101984.59;2389451;28;45710;-81
2022/07/04 09:42:08;;;;;;;;;4.25;2.25;;;;;21.86;43.36;101978.25;2391256;28;46352;-81
2022/07/04 09:43:18;;;;;;;;;3.00;3.00;;;;;21.89;42.81;101972.75;2386155;28;46068;-80
2022/07/04 09:44:50;;;;;;;;;2.75;2.75;;;;;21.91;42.70;101977.06;2386385;28;45491;-81
2022/07/04 09:46:01;;;;;;;;;3.50;3.00;;;;;21.94;42.91;101972.47;2388371;28;45459;-81
2022/07/04 09:47:29;;;;;;;;;3.00;3.00;;;;;21.96;43.53;101976.75;2387819;28;45620;-81
2022/07/04 09:48:50;;;;;;;;;5.50;4.75;;;;;21.97;43.25;101973.16;2391923;28;45276;-80
2022/07/04 09:50:09;;;;;;;;;5.75;3.00;;;;;21.99;42.27;101979.25;2387461;28;45379;-80
2022/07/04 09:51:35;;;;;;;;;4.00;2.00;;;;;21.99;42.39;101971.22;2390149;28;46586;-80
2022/07/04 09:52:49;;;;;;;;;3.75;2.75;;;;;22.03;42.63;101971.88;2388098;28;46552;-81
2022/07/04 09:54:13;;;;;;;;;4.00;2.25;;;;;22.03;42.52;101974.56;2390315;28;45841;-80
2022/07/04 09:55:27;;;;;;;;;1.25;1.25;;;;;22.05;43.16;101979.84;2389232;28;45455;-80
2022/07/04 09:56:52;;;;;;;;;2.00;2.00;;;;;22.07;42.79;101980.59;2391486;28;45169;-80
2022/07/04 09:58:06;;;;;;;;;2.00;2.00;;;;;22.08;42.82;101966.25;2388637;28;46441;-81
2022/07/04 09:59:17;;;;;;;;;3.00;2.00;;;;;22.11;43.34;101976.75;2388976;28;44797;-80
2022/07/04 10:00:33;;;;;;;;;2.00;2.00;;;;;22.15;43.26;101976.47;2390739;28;45688;-81
2022/07/04 10:01:44;;;;;;;;;3.50;2.75;;;;;22.18;43.40;101972.75;2389208;28;45486;-81
2022/07/04 10:02:56;;;;;;;;;3.00;3.00;;;;;22.23;42.80;101969.75;2391488;28;45390;-80
2022/07/04 10:04:07;;;;;;;;;3.00;2.00;;;;;22.26;42.51;101973.13;2391606;28;45819;-80
2022/07/04 10:05:24;;;;;;;;;2.50;2.00;;;;;22.32;42.11;101968.34;2384713;28;45405;-80
2022/07/04 10:06:38;;;;;;;;;2.00;2.00;;;;;22.34;42.15;101983.34;2389091;28;44695;-80
2022/07/04 10:07:49;;;;;;;;;3.50;3.25;;;;;22.35;41.94;101973.47;2388487;28;46198;-80
2022/07/04 10:09:16;;;;;;;;;2.00;2.00;;;;;22.36;42.00;101986.78;2387685;28;45292;-81
2022/07/04 10:10:35;;;;;;;;;4.25;3.00;;;;;22.37;41.64;101974.25;2392135;28;46692;-81
2022/07/04 10:11:46;;;;;;;;;3.25;3.00;;;;;22.41;41.85;101975.78;2391498;28;45169;-81
2022/07/04 10:13:05;;;;;;;;;2.75;2.50;;;;;22.43;41.58;101973.84;2391600;28;45589;-81
2022/07/04 10:14:17;;;;;;;;;2.00;2.00;;;;;22.45;42.14;101971.94;2401137;28;45567;-81
2022/07/04 10:15:27;;;;;;;;;1.50;1.50;;;;;22.51;41.64;101972.50;2398209;28;45462;-81
2022/07/04 10:16:39;;;;;;;;;3.00;2.00;;;;;22.54;41.94;101969.63;2392458;28;44773;-81
2022/07/04 10:17:50;;;;;;;;;3.25;3.25;;;;;22.58;41.94;101972.00;2391596;28;46319;-82
2022/07/04 10:19:02;;;;;;;;;2.00;2.00;;;;;22.63;42.12;101978.88;2393817;28;45238;-80
2022/07/04 10:20:13;;;;;;;;;3.25;3.25;;;;;22.64;42.00;101969.88;2386254;28;48332;-81
2022/07/04 10:21:24;;;;;;;;;4.25;3.00;;;;;22.67;41.64;101970.53;2393449;28;44789;-81
2022/07/04 10:22:36;;;;;;;;;2.00;2.00;;;;;22.69;42.03;101965.13;2394037;28;46364;-81
2022/07/04 10:23:48;;;;;;;;;4.00;3.00;;;;;22.69;42.31;101970.47;2392840;28;45233;-81
2022/07/04 10:24:58;;;;;;;;;1.00;1.00;;;;;22.70;41.40;101958.78;2387358;28;45692;-80
2022/07/04 10:26:10;;;;;;;;;3.00;3.00;;;;;22.70;41.28;101970.38;2389925;28;44605;-81
2022/07/04 10:27:21;;;;;;;;;6.00;3.00;;;;;22.69;40.82;101971.31;2386916;28;45344;-81
2022/07/04 10:28:32;;;;;;;;;3.50;3.50;;;;;22.68;41.51;101963.34;2391680;28;45456;-80
2022/07/04 10:29:43;;;;;;;;;5.00;3.25;;;;;22.70;41.47;101967.69;2391352;28;46368;-82
2022/07/04 10:30:57;;;;;;;;;2.00;2.00;;;;;22.73;40.32;101979.16;2394209;28;45525;-81
2022/07/04 10:32:08;;;;;;;;;3.75;3.75;;;;;22.74;39.87;101964.81;2393275;28;45432;-81
2022/07/04 10:33:25;;;;;;;;;2.50;2.00;;;;;22.77;40.82;101969.94;2394288;28;45455;-81
2022/07/04 10:34:40;;;;;;;;;4.00;2.75;;;;;22.78;41.03;101972.56;2393345;28;45436;-81
2022/07/04 10:36:02;;;;;;;;;2.50;2.00;;;;;22.80;39.54;101964.41;2394224;28;45233;-81
2022/07/04 10:37:13;;;;;;;;;2.00;1.00;;;;;22.80;40.80;101969.75;2390430;28;46258;-81
2022/07/04 10:38:25;;;;;;;;;1.50;1.00;;;;;22.81;40.82;101966.13;2392859;28;45465;-81
2022/07/04 10:39:36;;;;;;;;;2.50;2.25;;;;;22.84;41.62;101970.44;2393729;28;45442;-81
2022/07/04 10:40:50;;;;;;;;;2.00;2.00;;;;;22.86;41.16;101974.72;2394442;28;45272;-81
2022/07/04 10:42:01;;;;;;;;;2.25;2.00;;;;;22.87;40.28;101963.03;2394842;28;45578;-81
2022/07/04 10:43:30;;;;;;;;;3.00;1.00;;;;;22.90;40.11;101964.66;2394161;28;45451;-81
2022/07/04 10:44:41;;;;;;;;;3.00;2.00;;;;;22.92;40.70;101960.03;2392409;28;45489;-82
2022/07/04 10:45:52;;;;;;;;;4.00;2.25;;;;;22.94;40.72;101960.78;2395816;28;45703;-82
2022/07/04 10:47:04;;;;;;;;;1.25;1.25;;;;;22.97;40.46;101960.59;2394071;28;45466;-82
2022/07/04 10:48:20;;;;;;;;;1.50;1.50;;;;;23.01;40.30;101962.13;2394708;28;45259;-81
2022/07/04 10:49:31;;;;;;;;;1.25;1.25;;;;;23.02;39.62;101960.28;2392675;28;45416;-81
2022/07/04 10:51:00;;;;;;;;;2.25;2.25;;;;;23.05;40.41;101962.75;2393960;28;45456;-81
2022/07/04 10:52:12;;;;;;;;;2.00;1.25;;;;;23.08;40.54;101959.88;2393795;28;46300;-81
2022/07/04 10:53:23;;;;;;;;;1.50;1.50;;;;;23.09;39.61;101958.06;2394213;28;45372;-81
2022/07/04 10:54:35;;;;;;;;;0.00;0.00;;;;;23.09;39.63;101953.53;2392867;28;46458;-82
2022/07/04 10:55:46;;;;;;;;;2.00;2.00;;;;;23.10;38.15;101951.72;2393747;28;45414;-81
2022/07/04 10:57:10;;;;;;;;;4.00;1.00;;;;;23.11;40.18;101956.97;2398813;28;46188;-82
2022/07/04 10:58:50;;;;;;;;;2.00;2.00;;;;;23.12;39.30;101958.69;2397127;28;45509;-82
2022/07/04 11:00:01;;;;;;;;;2.75;2.00;;;;;23.14;38.88;101959.47;2391621;28;47027;-82
2022/07/04 11:01:12;;;;;;;;;1.75;1.25;;;;;23.15;38.53;101963.88;2392738;28;45263;-81
2022/07/04 11:02:30;;;;;;;;;3.00;2.00;;;;;23.13;38.91;101952.41;2395088;28;46319;-81
2022/07/04 11:03:49;;;;;;;;;2.75;2.75;;;;;23.16;38.23;101952.16;2397224;28;45263;-81
2022/07/04 11:05:08;;;;;;;;;2.25;1.25;;;;;23.20;39.44;101963.56;2395503;28;45576;-82
2022/07/04 11:06:33;;;;;;;;;1.00;1.00;;;;;23.24;39.22;101956.13;2394088;28;45368;-81
2022/07/04 11:07:44;;;;;;;;;2.00;2.00;;;;;23.24;38.03;101957.00;2393258;28;46581;-82
2022/07/04 11:09:30;;;;;;;;;1.25;1.25;;;;;23.24;38.57;101954.31;2394628;28;45450;-82
2022/07/04 11:10:40;;;;;;;;;2.25;2.25;;;;;23.25;37.61;101963.22;2377551;28;45397;-81
2022/07/04 11:12:00;;;;;;;;;0.00;0.00;;;;;23.27;38.19;101955.94;2377761;28;44735;-83
2022/07/04 11:13:16;;;;;;;;;2.75;2.75;;;;;23.27;37.73;101956.81;2387962;28;46372;-82
2022/07/04 11:14:46;;;;;;;;;3.00;3.00;;;;;23.28;37.94;101952.31;2400622;28;45599;-82
2022/07/04 11:15:58;;;;;;;;;3.00;2.75;;;;;23.31;38.28;101952.06;2398145;28;45459;-82
2022/07/04 11:17:19;;;;;;;;;1.00;1.00;;;;;23.36;37.67;101949.09;2397427;28;44739;-82
2022/07/04 11:18:30;;;;;;;;;2.00;2.00;;;;;23.40;38.01;101947.06;2392981;28;45386;-81
2022/07/04 11:19:41;;;;;;;;;2.00;2.00;;;;;23.41;38.39;101952.31;2395397;28;45293;-82
2022/07/04 11:20:52;;;;;;;;;1.00;1.00;;;;;23.43;38.24;101954.91;2392557;28;45500;-82
2022/07/04 11:22:05;;;;;;;;;2.50;1.00;;;;;23.47;39.01;101946.53;2396839;28;45362;-82
2022/07/04 11:23:19;;;;;;;;;2.00;0.25;;;;;23.48;38.86;101958.13;2398209;28;45595;-84
2022/07/04 11:24:29;;;;;;;;;2.00;0.75;;;;;23.51;39.01;101957.09;2400030;28;45235;-82
2022/07/04 11:25:44;;;;;;;;;3.50;3.00;;;;;23.52;37.96;101953.41;2393421;28;46336;-85
2022/07/04 11:26:55;;;;;;;;;3.00;3.00;;;;;23.53;38.23;101952.47;2393970;28;45250;-79
2022/07/04 11:28:22;;;;;;;;;2.00;2.00;;;;;23.55;36.20;101953.22;2395876;28;46273;-80
2022/07/04 11:29:34;;;;;;;;;1.00;1.00;;;;;23.55;38.36;101946.03;2394803;28;44631;-80
2022/07/04 11:30:56;;;;;;;;;1.00;1.00;;;;;23.58;37.95;101942.28;2393368;28;45660;-80
2022/07/04 11:32:07;;;;;;;;;3.75;2.00;;;;;23.59;36.41;101950.19;2389987;28;45758;-80
2022/07/04 11:33:24;;;;;;;;;2.00;2.00;;;;;23.64;37.25;101947.19;2393305;28;45237;-80
2022/07/04 11:34:34;;;;;;;;;3.00;3.00;;;;;23.67;36.67;101946.13;2393792;28;45430;-80
2022/07/04 11:36:05;;;;;;;;;6.00;2.00;;;;;23.68;35.59;101953.22;2394203;28;45391;-80
2022/07/04 11:37:15;;;;;;;;;1.25;1.25;;;;;23.70;36.91;101945.91;2399779;28;44738;-79
2022/07/04 11:38:42;;;;;;;;;2.25;1.75;;;;;23.71;37.38;101948.47;2393641;28;45340;-80
2022/07/04 11:46:12;;;;;;;;;1.00;1.00;;;;;23.82;37.04;101942.38;2397070;28;44778;-80
2022/07/04 11:47:25;;;;;;;;;3.50;2.25;;;;;23.85;36.74;101943.13;2393999;28;46202;-80
2022/07/04 11:48:35;;;;;;;;;3.00;1.75;;;;;23.87;37.13;101935.81;2401289;28;45287;-80
2022/07/04 11:49:46;;;;;;;;;3.00;2.00;;;;;23.90;37.47;101935.59;2392136;28;45446;-80
2022/07/04 11:50:57;;;;;;;;;1.00;1.00;;;;;23.92;37.77;101933.66;2393419;28;45347;-79
2022/07/04 11:52:07;;;;;;;;;2.25;2.25;;;;;23.93;37.30;101928.16;2393110;28;45429;-79
2022/07/04 11:53:18;;;;;;;;;3.00;2.00;;;;;23.94;37.32;101929.88;2393431;28;44731;-79
2022/07/04 11:54:29;;;;;;;;;2.50;1.50;;;;;23.97;36.88;101928.81;2391956;28;45242;-79
2022/07/04 11:55:55;;;;;;;;;2.00;2.00;;;;;23.96;37.35;101919.03;2394436;28;45462;-79
2022/07/04 11:57:15;;;;;;;;;2.25;1.25;;;;;23.98;37.81;101925.13;2393323;28;46069;-80
2022/07/04 11:58:25;;;;;;;;;2.25;2.25;;;;;24.01;37.70;101916.88;2392062;28;47050;-80
2022/07/04 11:59:36;;;;;;;;;1.75;1.75;;;;;24.02;37.65;101912.38;2390955;28;45977;-80
2022/07/04 12:00:46;;;;;;;;;2.25;2.00;;;;;24.03;37.90;101901.50;2392704;28;45336;-80
2022/07/04 12:02:10;;;;;;;;;1.50;1.50;;;;;24.07;37.30;101914.72;2393042;28;45384;-80
2022/07/04 12:03:20;;;;;;;;;1.50;1.50;;;;;24.06;35.92;101908.47;2393279;28;45194;-79
2022/07/04 12:04:31;;;;;;;;;3.25;3.25;;;;;24.09;35.82;101905.59;2391515;28;45417;-80
2022/07/04 12:05:43;;;;;;;;;4.00;3.00;;;;;24.07;35.58;101901.28;2392853;28;45288;-80
2022/07/04 12:06:53;;;;;;;;;4.75;3.00;;;;;24.08;35.93;101901.16;2391535;28;45360;-79
2022/07/04 12:08:07;;;;;;;;;2.00;2.00;;;;;24.09;35.55;101907.41;2392933;28;45292;-79
2022/07/04 12:09:17;;;;;;;;;1.25;1.25;;;;;24.11;35.73;101897.41;2392606;28;46203;-79
2022/07/04 12:10:28;;;;;;;;;2.00;2.00;;;;;24.13;36.44;101896.31;2393176;28;44683;-79
2022/07/04 12:11:59;;;;;;;;;2.75;2.00;;;;;24.19;36.05;101903.09;2392883;28;45360;-79
2022/07/04 12:13:16;;;;;;;;;3.00;3.00;;;;;24.21;35.31;101894.91;2393365;28;45547;-79
2022/07/04 12:14:27;;;;;;;;;2.00;2.00;;;;;24.22;36.08;101889.44;2389384;28;45399;-79
2022/07/04 12:15:43;;;;;;;;;2.00;2.00;;;;;24.26;36.04;101892.78;2393388;28;44711;-79